Time;durP1;ratioP1;P1;durP2;ratioP2;P2;SDS_P1;SDS_P2;PMS_P1;PMS_P2;Temp;Humidity;BMP_temperature;BMP_pressure;BME280_temperature;BME280_humidity;BME280_pressure;Samples;Min_cycle;Max_cycle;Signal;HPM_P1;HPM_P2
2022/03/05 00:01:58;;;;;;;2.90;1.40;;;20.80;44.80;;;;;;5034366;28;20053;-65
2022/03/05 00:04:23;;;;;;;2.47;1.23;;;20.80;44.70;;;;;;5035881;28;20021;-68
2022/03/05 00:06:49;;;;;;;2.20;1.50;;;20.80;44.70;;;;;;5033994;28;20581;-68
2022/03/05 00:09:17;;;;;;;2.22;1.27;;;20.80;44.70;;;;;;5033088;28;20025;-68
2022/03/05 00:11:43;;;;;;;1.88;1.20;;;20.80;44.70;;;;;;5032376;28;20497;-67
2022/03/05 00:14:09;;;;;;;2.28;1.23;;;20.80;44.60;;;;;;5017028;28;20357;-68
2022/03/05 00:16:34;;;;;;;2.17;1.23;;;20.80;44.60;;;;;;5035037;28;20037;-68
2022/03/05 00:19:00;;;;;;;2.65;1.40;;;20.80;44.60;;;;;;5034792;28;20033;-68
2022/03/05 00:21:26;;;;;;;2.08;1.13;;;20.80;44.60;;;;;;5035373;28;20033;-66
2022/03/05 00:23:51;;;;;;;2.00;1.30;;;20.80;44.50;;;;;;5033158;28;20029;-65
2022/03/05 00:26:17;;;;;;;2.20;1.25;;;20.70;44.40;;;;;;5033814;28;20041;-65
2022/03/05 00:28:43;;;;;;;1.90;1.20;;;20.70;44.40;;;;;;5034698;28;20033;-66
2022/03/05 00:31:09;;;;;;;1.55;1.00;;;20.70;44.40;;;;;;5036836;28;20136;-67
2022/03/05 00:33:34;;;;;;;1.83;1.15;;;20.70;44.40;;;;;;5034901;28;20033;-64
2022/03/05 00:36:00;;;;;;;2.10;1.30;;;20.70;44.50;;;;;;5038673;28;20044;-68
2022/03/05 00:38:26;;;;;;;2.13;1.20;;;20.70;44.40;;;;;;5036902;28;20060;-68
2022/03/05 00:40:51;;;;;;;2.03;1.23;;;20.70;44.40;;;;;;5036316;28;20031;-66
2022/03/05 00:43:17;;;;;;;1.60;1.02;;;20.70;44.40;;;;;;5036715;28;20179;-68
2022/03/05 00:45:43;;;;;;;2.25;1.08;;;20.70;44.40;;;;;;5038015;28;20055;-68
2022/03/05 00:48:09;;;;;;;1.83;1.05;;;20.70;44.40;;;;;;5021236;28;20141;-64
2022/03/05 00:50:34;;;;;;;1.73;1.00;;;20.70;44.30;;;;;;5038816;28;20017;-68
2022/03/05 00:53:00;;;;;;;2.10;1.20;;;20.70;44.30;;;;;;5036171;28;20029;-68
2022/03/05 00:55:26;;;;;;;2.22;1.13;;;20.70;44.40;;;;;;5037258;28;20037;-65
2022/03/05 00:57:51;;;;;;;2.20;1.38;;;20.70;44.30;;;;;;5019618;28;20037;-68
2022/03/05 01:00:17;;;;;;;2.97;1.17;;;20.70;44.30;;;;;;5035175;28;20045;-66
2022/03/05 01:02:43;;;;;;;1.80;1.20;;;20.70;44.30;;;;;;5037921;28;20100;-68
2022/03/05 01:05:09;;;;;;;2.22;1.40;;;20.70;44.30;;;;;;5037087;28;20034;-63
2022/03/05 01:07:35;;;;;;;2.03;1.35;;;20.60;44.30;;;;;;5035569;28;20426;-65
2022/03/05 01:10:02;;;;;;;1.77;1.20;;;20.60;44.30;;;;;;5034775;28;20157;-68
2022/03/05 01:12:28;;;;;;;2.55;1.10;;;20.60;44.30;;;;;;5037567;28;20025;-68
2022/03/05 01:14:54;;;;;;;1.83;1.10;;;20.60;44.30;;;;;;5036492;28;20039;-68
2022/03/05 01:17:19;;;;;;;1.90;1.17;;;20.60;44.20;;;;;;5036321;28;20044;-68
2022/03/05 01:19:46;;;;;;;1.33;1.00;;;20.60;44.30;;;;;;5020017;28;20073;-64
2022/03/05 01:22:12;;;;;;;1.58;1.10;;;20.60;44.30;;;;;;5037217;28;20025;-68
2022/03/05 01:24:38;;;;;;;2.88;1.23;;;20.60;44.20;;;;;;5035971;28;20404;-68
2022/03/05 01:27:04;;;;;;;2.08;1.25;;;20.60;44.30;;;;;;5035462;28;20033;-68
2022/03/05 01:29:29;;;;;;;1.88;1.00;;;20.60;44.20;;;;;;5037119;28;20484;-65
2022/03/05 01:31:55;;;;;;;1.50;1.10;;;20.60;44.30;;;;;;5035732;28;20041;-68
2022/03/05 01:34:21;;;;;;;1.70;1.17;;;20.60;44.30;;;;;;5036728;28;20033;-64
2022/03/05 01:36:47;;;;;;;1.83;1.10;;;20.60;44.20;;;;;;5036324;28;20040;-68
2022/03/05 01:39:14;;;;;;;2.47;1.20;;;20.60;44.20;;;;;;5034441;28;20382;-66
2022/03/05 01:41:40;;;;;;;1.95;1.38;;;20.60;44.20;;;;;;5033720;28;20116;-68
2022/03/05 01:44:06;;;;;;;2.03;1.30;;;20.60;44.30;;;;;;5036974;28;20339;-65
2022/03/05 01:46:35;;;;;;;1.75;1.10;;;20.50;44.20;;;;;;5037643;28;20083;-68
2022/03/05 01:49:09;;;;;;;1.58;1.10;;;20.50;44.20;;;;;;5036999;28;20043;-65
2022/03/05 01:51:36;;;;;;;1.65;1.10;;;20.50;44.20;;;;;;5036551;28;20033;-66
2022/03/05 01:54:03;;;;;;;1.65;1.20;;;20.50;44.20;;;;;;5035149;28;20022;-66
2022/03/05 01:56:30;;;;;;;2.00;1.17;;;20.50;44.20;;;;;;5036004;28;20117;-68
2022/03/05 01:58:55;;;;;;;1.95;1.17;;;20.50;44.20;;;;;;5036548;28;20033;-68
2022/03/05 02:01:23;;;;;;;1.35;1.00;;;20.50;44.20;;;;;;5036704;28;20041;-64
2022/03/05 02:03:51;;;;;;;1.50;1.10;;;20.50;44.20;;;;;;5037447;28;20035;-68
2022/03/05 02:06:17;;;;;;;1.63;1.10;;;20.50;44.20;;;;;;5020362;28;20052;-65
2022/03/05 02:08:44;;;;;;;2.20;1.30;;;20.50;44.20;;;;;;5033628;28;20036;-67
2022/03/05 02:11:09;;;;;;;1.45;1.00;;;20.50;44.20;;;;;;5034605;28;20025;-66
2022/03/05 02:13:36;;;;;;;1.67;1.08;;;20.50;44.20;;;;;;5035807;28;20025;-68
2022/03/05 02:16:02;;;;;;;2.05;1.10;;;20.50;44.20;;;;;;5036445;28;20048;-67
2022/03/05 02:18:27;;;;;;;1.70;1.15;;;20.50;44.20;;;;;;5036354;28;20064;-68
2022/03/05 02:21:00;;;;;;;2.15;1.17;;;20.40;44.10;;;;;;5036913;28;20033;-69
2022/03/05 02:23:25;;;;;;;1.98;1.27;;;20.40;44.10;;;;;;5034589;28;20021;-65
2022/03/05 02:25:51;;;;;;;1.80;1.20;;;20.40;44.10;;;;;;5036394;28;20358;-68
2022/03/05 02:28:18;;;;;;;1.58;1.02;;;20.40;44.10;;;;;;5037098;28;20117;-67
2022/03/05 02:30:43;;;;;;;1.33;1.00;;;20.40;44.10;;;;;;5035909;28;20055;-68
2022/03/05 02:33:09;;;;;;;1.70;1.02;;;20.40;44.10;;;;;;5018245;28;20029;-67
2022/03/05 02:35:35;;;;;;;1.75;1.10;;;20.40;44.60;;;;;;5034616;28;20029;-67
2022/03/05 02:38:00;;;;;;;2.33;1.27;;;20.40;44.10;;;;;;5036104;28;20418;-68
2022/03/05 02:40:26;;;;;;;1.70;1.20;;;20.40;44.10;;;;;;5034202;28;20072;-64
2022/03/05 02:42:52;;;;;;;1.70;1.20;;;20.40;44.10;;;;;;5036618;28;20127;-68
2022/03/05 02:45:17;;;;;;;1.52;1.05;;;20.40;44.10;;;;;;5034530;28;20081;-67
2022/03/05 02:47:43;;;;;;;1.90;1.10;;;20.40;44.10;;;;;;5036776;28;20029;-64
2022/03/05 02:50:09;;;;;;;1.80;1.10;;;20.40;44.10;;;;;;5035587;28;20036;-67
2022/03/05 02:52:37;;;;;;;2.78;1.27;;;20.30;44.10;;;;;;5032438;28;20070;-65
2022/03/05 02:55:04;;;;;;;1.30;1.08;;;20.30;44.10;;;;;;5035612;28;20029;-68
2022/03/05 02:57:29;;;;;;;2.03;1.38;;;20.40;44.10;;;;;;5017467;28;20041;-67
2022/03/05 02:59:55;;;;;;;1.65;1.17;;;20.30;44.10;;;;;;5035553;28;20094;-68
2022/03/05 03:02:21;;;;;;;1.55;1.20;;;20.30;44.10;;;;;;5036331;28;20061;-68
2022/03/05 03:04:46;;;;;;;1.88;1.30;;;20.30;44.10;;;;;;5036082;28;20029;-65
2022/03/05 03:07:12;;;;;;;1.67;1.13;;;20.30;44.00;;;;;;5035102;28;20029;-68
2022/03/05 03:09:37;;;;;;;1.58;1.00;;;20.40;44.10;;;;;;5034701;28;20034;-65
2022/03/05 03:12:04;;;;;;;1.75;1.10;;;20.30;44.10;;;;;;5034283;28;20041;-64
2022/03/05 03:14:29;;;;;;;1.50;1.10;;;20.30;44.10;;;;;;5033759;28;20025;-68
2022/03/05 03:16:55;;;;;;;1.55;1.10;;;20.30;44.00;;;;;;5036483;28;20359;-68
2022/03/05 03:19:20;;;;;;;1.73;1.13;;;20.30;44.00;;;;;;5035309;28;20096;-68
2022/03/05 03:21:46;;;;;;;1.38;0.90;;;20.30;44.00;;;;;;5035549;28;20033;-65
2022/03/05 03:24:12;;;;;;;1.50;1.08;;;20.30;44.10;;;;;;5034990;28;20135;-68
2022/03/05 03:26:37;;;;;;;1.55;1.02;;;20.30;44.00;;;;;;5034251;28;20492;-64
2022/03/05 03:29:03;;;;;;;1.50;1.00;;;20.30;44.10;;;;;;5035711;28;20078;-65
2022/03/05 03:31:29;;;;;;;1.70;1.20;;;20.30;44.10;;;;;;5034618;28;20110;-64
2022/03/05 03:33:54;;;;;;;1.70;1.10;;;20.30;44.00;;;;;;5036203;28;20489;-68
2022/03/05 03:36:20;;;;;;;1.52;0.90;;;20.30;44.00;;;;;;5018438;28;20040;-68
2022/03/05 03:38:46;;;;;;;1.88;1.10;;;20.20;44.00;;;;;;5033820;28;20029;-66
2022/03/05 03:41:11;;;;;;;1.38;1.00;;;20.30;44.10;;;;;;5032984;28;20025;-66
2022/03/05 03:43:37;;;;;;;1.63;1.10;;;20.20;44.00;;;;;;5036200;28;20118;-63
2022/03/05 03:46:03;;;;;;;1.60;1.02;;;20.20;44.00;;;;;;5036398;28;20026;-68
2022/03/05 03:48:28;;;;;;;1.75;1.10;;;20.20;44.00;;;;;;5034595;28;20350;-66
2022/03/05 03:50:54;;;;;;;2.00;1.20;;;20.20;44.00;;;;;;5034941;28;20465;-68
2022/03/05 03:53:19;;;;;;;1.55;1.08;;;20.20;44.00;;;;;;5033619;28;20021;-66
2022/03/05 03:55:45;;;;;;;1.65;1.10;;;20.20;44.00;;;;;;5034679;28;20041;-68
2022/03/05 03:58:11;;;;;;;1.95;1.13;;;20.20;44.00;;;;;;5035552;28;20045;-65
2022/03/05 04:00:37;;;;;;;1.42;1.10;;;20.20;44.00;;;;;;5033687;28;20048;-67
2022/03/05 04:03:02;;;;;;;1.63;1.20;;;20.20;44.00;;;;;;5034122;28;20123;-65
2022/03/05 04:05:28;;;;;;;1.95;1.20;;;20.20;44.00;;;;;;5038507;28;20107;-68
2022/03/05 04:10:38;;;;;;;1.35;0.95;;;20.20;44.00;;;;;;5038252;28;20036;-68
2022/03/05 04:13:04;;;;;;;1.42;1.10;;;20.20;44.00;;;;;;5036728;28;20358;-65
2022/03/05 04:15:29;;;;;;;1.23;0.90;;;20.20;44.00;;;;;;5039192;28;20041;-66
2022/03/05 04:17:55;;;;;;;1.20;1.00;;;20.20;44.00;;;;;;5037341;28;20060;-65
2022/03/05 04:20:20;;;;;;;1.05;0.85;;;20.20;44.00;;;;;;5039124;28;20100;-65
2022/03/05 04:22:46;;;;;;;1.88;1.25;;;20.20;44.00;;;;;;5038475;28;20057;-64
2022/03/05 04:25:12;;;;;;;1.70;1.10;;;20.20;44.00;;;;;;5038739;28;20029;-65
2022/03/05 04:27:38;;;;;;;1.83;1.00;;;20.20;44.00;;;;;;5038176;28;20033;-68
2022/03/05 04:30:05;;;;;;;1.48;1.00;;;20.20;44.00;;;;;;5036073;28;20802;-64
2022/03/05 04:32:30;;;;;;;1.20;1.00;;;20.20;44.00;;;;;;5038861;28;20064;-68
2022/03/05 04:34:56;;;;;;;1.42;0.98;;;20.20;44.10;;;;;;5039792;28;20030;-68
2022/03/05 04:37:21;;;;;;;1.95;1.20;;;20.20;44.00;;;;;;5040344;28;20033;-65
2022/03/05 04:39:47;;;;;;;2.00;1.20;;;20.10;44.00;;;;;;5036664;28;20603;-67
2022/03/05 04:42:13;;;;;;;1.42;1.00;;;20.20;44.00;;;;;;5036187;28;20030;-68
2022/03/05 04:44:38;;;;;;;1.98;1.20;;;20.10;44.00;;;;;;5039254;28;20036;-66
2022/03/05 04:47:04;;;;;;;1.15;0.90;;;20.10;44.00;;;;;;5038700;28;20033;-68
2022/03/05 04:49:30;;;;;;;1.67;1.10;;;20.10;44.00;;;;;;5037976;28;20029;-64
2022/03/05 04:51:55;;;;;;;1.30;0.93;;;20.10;44.00;;;;;;5038747;28;20029;-66
2022/03/05 04:54:21;;;;;;;1.80;1.20;;;20.10;44.00;;;;;;5037525;28;20404;-64
2022/03/05 04:56:47;;;;;;;1.60;1.23;;;20.10;44.00;;;;;;5037443;28;20163;-65
2022/03/05 04:59:12;;;;;;;1.15;0.90;;;20.10;44.00;;;;;;5037607;28;20037;-65
2022/03/05 05:01:38;;;;;;;1.65;1.20;;;20.10;44.00;;;;;;5037771;28;20425;-68
2022/03/05 05:04:04;;;;;;;1.90;1.08;;;20.10;44.60;;;;;;5039157;28;20048;-65
2022/03/05 05:06:30;;;;;;;1.75;1.05;;;20.10;44.10;;;;;;5037518;28;20560;-70
2022/03/05 05:08:55;;;;;;;1.70;1.08;;;20.10;44.00;;;;;;5037138;28;20028;-68
2022/03/05 05:11:21;;;;;;;1.40;1.00;;;20.10;44.10;;;;;;5020137;28;20125;-68
2022/03/05 05:13:47;;;;;;;1.70;1.00;;;20.10;44.10;;;;;;5037895;28;20025;-67
2022/03/05 05:16:12;;;;;;;2.10;1.38;;;20.10;44.10;;;;;;5038753;28;20126;-70
2022/03/05 05:18:38;;;;;;;1.48;0.90;;;20.10;44.10;;;;;;5038019;28;20505;-70
2022/03/05 05:21:04;;;;;;;1.83;0.90;;;20.10;44.10;;;;;;5038257;28;20093;-67
2022/03/05 05:23:29;;;;;;;1.40;1.10;;;20.10;44.10;;;;;;5036758;28;20758;-67
2022/03/05 05:25:55;;;;;;;2.03;1.20;;;20.10;44.10;;;;;;5036140;28;20040;-67
2022/03/05 05:28:21;;;;;;;1.50;1.00;;;20.10;44.10;;;;;;5037575;28;20579;-65
2022/03/05 05:30:47;;;;;;;1.75;1.00;;;20.10;44.60;;;;;;5036383;28;20036;-65
2022/03/05 05:33:12;;;;;;;1.77;1.17;;;20.10;44.10;;;;;;5037920;28;20026;-67
2022/03/05 05:35:38;;;;;;;1.67;1.08;;;20.00;44.00;;;;;;5037524;28;20053;-63
2022/03/05 05:38:04;;;;;;;1.75;1.20;;;20.00;44.10;;;;;;5036516;28;20547;-69
2022/03/05 05:40:29;;;;;;;1.65;1.10;;;20.00;44.00;;;;;;5034966;28;20037;-65
2022/03/05 05:42:55;;;;;;;1.25;1.00;;;20.00;44.00;;;;;;5037023;28;20498;-67
2022/03/05 05:45:21;;;;;;;1.63;1.02;;;20.10;44.10;;;;;;5038428;28;20043;-70
2022/03/05 05:47:46;;;;;;;1.55;1.00;;;20.10;44.10;;;;;;5020155;28;20024;-67
2022/03/05 05:50:12;;;;;;;1.45;1.08;;;20.00;44.00;;;;;;5031149;28;20128;-69
2022/03/05 05:52:39;;;;;;;1.70;1.10;;;20.00;44.00;;;;;;5036836;28;20037;-67
2022/03/05 05:55:05;;;;;;;1.70;1.15;;;20.00;44.50;;;;;;5036578;28;20021;-67
2022/03/05 05:57:31;;;;;;;1.48;1.13;;;20.00;44.00;;;;;;5037324;28;20079;-66
2022/03/05 05:59:56;;;;;;;1.20;1.00;;;20.00;44.00;;;;;;5037712;28;20033;-68
2022/03/05 06:02:23;;;;;;;1.92;1.20;;;20.00;44.00;;;;;;5039878;28;20033;-69
2022/03/05 06:04:49;;;;;;;1.42;1.10;;;20.00;44.10;;;;;;5038254;28;20402;-70
2022/03/05 06:07:14;;;;;;;2.08;1.20;;;20.00;44.10;;;;;;5017716;28;20250;-66
2022/03/05 06:09:40;;;;;;;1.75;1.13;;;20.00;44.00;;;;;;5034485;28;20029;-68
2022/03/05 06:12:06;;;;;;;1.83;1.10;;;20.00;44.00;;;;;;5033593;28;20375;-67
2022/03/05 06:14:32;;;;;;;1.48;1.10;;;20.00;44.00;;;;;;5036143;28;20025;-70
2022/03/05 06:16:57;;;;;;;1.58;1.10;;;20.00;44.00;;;;;;5037359;28;20532;-67
2022/03/05 06:19:23;;;;;;;1.20;0.98;;;20.00;44.00;;;;;;5038260;28;20072;-70
2022/03/05 06:21:48;;;;;;;1.92;1.10;;;20.00;44.10;;;;;;5036771;28;20031;-69
2022/03/05 06:24:14;;;;;;;1.60;1.10;;;20.00;44.10;;;;;;5034798;28;20095;-69
2022/03/05 06:26:40;;;;;;;1.73;1.20;;;20.00;44.10;;;;;;5033779;28;20095;-70
2022/03/05 06:29:05;;;;;;;2.03;1.30;;;20.00;44.00;;;;;;5034902;28;20508;-68
2022/03/05 06:31:31;;;;;;;2.00;1.20;;;20.00;44.00;;;;;;5033685;28;20505;-70
2022/03/05 06:33:56;;;;;;;1.67;1.13;;;20.00;44.10;;;;;;5035389;28;20105;-69
2022/03/05 06:36:22;;;;;;;1.92;1.20;;;20.00;44.10;;;;;;5032514;28;20099;-67
2022/03/05 06:38:48;;;;;;;1.80;1.20;;;20.00;44.00;;;;;;5032075;28;20037;-67
2022/03/05 06:41:13;;;;;;;2.10;1.30;;;20.00;44.00;;;;;;5031532;28;20116;-69
2022/03/05 06:43:39;;;;;;;2.80;1.30;;;20.00;44.00;;;;;;5033085;28;20037;-67
2022/03/05 06:46:05;;;;;;;1.77;1.10;;;20.00;44.00;;;;;;5033559;28;20555;-66
2022/03/05 06:48:30;;;;;;;2.20;1.38;;;19.90;44.00;;;;;;5034326;28;20040;-67
2022/03/05 06:50:56;;;;;;;1.80;1.20;;;20.00;44.00;;;;;;5034624;28;20124;-69
2022/03/05 06:53:22;;;;;;;2.17;1.40;;;20.00;44.00;;;;;;5033380;28;20485;-67
2022/03/05 06:55:47;;;;;;;1.75;1.02;;;20.00;44.00;;;;;;5031853;28;20029;-69
2022/03/05 06:58:15;;;;;;;2.05;1.20;;;19.90;44.00;;;;;;5033554;28;20076;-70
2022/03/05 07:00:41;;;;;;;2.65;1.40;;;19.90;44.00;;;;;;5032214;28;20073;-70
2022/03/05 07:03:07;;;;;;;2.92;1.40;;;19.90;44.00;;;;;;5034734;28;20083;-70
2022/03/05 07:05:32;;;;;;;2.22;1.35;;;19.90;44.00;;;;;;5034277;28;20476;-65
2022/03/05 07:07:58;;;;;;;3.42;1.40;;;19.90;43.90;;;;;;5032474;28;20136;-70
2022/03/05 07:10:23;;;;;;;2.47;1.33;;;19.90;44.00;;;;;;5031353;28;20309;-69
2022/03/05 07:12:49;;;;;;;2.50;1.15;;;19.90;44.00;;;;;;5032516;28;20323;-66
2022/03/05 07:15:15;;;;;;;2.38;1.33;;;19.90;43.90;;;;;;5034672;28;20423;-69
2022/03/05 07:17:51;;;;;;;3.13;1.50;;;19.90;43.90;;;;;;5016375;28;20030;-66
2022/03/05 07:20:17;;;;;;;2.28;1.40;;;19.90;43.90;;;;;;5032512;28;20761;-67
2022/03/05 07:22:42;;;;;;;2.15;1.30;;;19.90;43.90;;;;;;5031080;28;20018;-68
2022/03/05 07:25:09;;;;;;;2.90;1.40;;;19.90;43.90;;;;;;5030346;28;20465;-67
2022/03/05 07:27:35;;;;;;;2.88;1.65;;;19.90;43.90;;;;;;5032651;28;20025;-67
2022/03/05 07:30:00;;;;;;;2.03;1.20;;;19.90;43.80;;;;;;5028950;28;20025;-69
2022/03/05 07:32:26;;;;;;;2.95;1.52;;;19.90;43.90;;;;;;5014260;28;20038;-69
2022/03/05 07:34:51;;;;;;;3.35;1.63;;;19.90;43.90;;;;;;5033125;28;20350;-68
2022/03/05 07:37:17;;;;;;;3.38;1.45;;;19.90;43.70;;;;;;5032968;28;20068;-66
2022/03/05 07:39:43;;;;;;;2.53;1.50;;;19.90;43.70;;;;;;5031962;28;20055;-69
2022/03/05 07:42:09;;;;;;;2.50;1.50;;;19.90;43.60;;;;;;5029641;28;20065;-67
2022/03/05 07:44:35;;;;;;;2.55;1.40;;;19.90;43.50;;;;;;5035318;28;20033;-70
2022/03/05 07:47:01;;;;;;;2.47;1.48;;;19.90;43.50;;;;;;5033154;28;20040;-69
2022/03/05 07:49:26;;;;;;;2.50;1.65;;;19.90;43.50;;;;;;5033239;28;20098;-69
2022/03/05 07:51:52;;;;;;;3.38;1.73;;;19.90;43.40;;;;;;5033436;28;20043;-66
2022/03/05 07:54:18;;;;;;;3.45;1.77;;;19.90;43.50;;;;;;5032621;28;20025;-70
2022/03/05 07:56:44;;;;;;;3.65;1.83;;;19.90;43.40;;;;;;5036253;28;20060;-69
2022/03/05 07:59:09;;;;;;;3.67;1.80;;;19.90;43.40;;;;;;5036887;28;20473;-69
2022/03/05 08:01:35;;;;;;;6.35;2.22;;;19.90;43.40;;;;;;5036023;28;20458;-67
2022/03/05 08:04:00;;;;;;;4.03;1.98;;;19.80;43.30;;;;;;5036283;28;20096;-67
2022/03/05 08:06:26;;;;;;;3.63;1.80;;;19.90;43.30;;;;;;5035927;28;20503;-66
2022/03/05 08:08:52;;;;;;;3.75;2.20;;;19.90;43.40;;;;;;5032307;28;20076;-70
2022/03/05 08:11:18;;;;;;;4.35;2.08;;;19.90;43.30;;;;;;5034014;28;20072;-68
2022/03/05 08:13:43;;;;;;;3.42;2.00;;;19.90;43.30;;;;;;5036652;28;20051;-67
2022/03/05 08:16:09;;;;;;;4.55;1.80;;;19.90;43.30;;;;;;5034200;28;20065;-70
2022/03/05 08:18:35;;;;;;;3.67;1.90;;;19.90;43.30;;;;;;5022919;28;20033;-69
2022/03/05 08:21:02;;;;;;;4.95;2.17;;;19.90;43.30;;;;;;5032266;28;20497;-66
2022/03/05 08:23:28;;;;;;;3.95;2.00;;;19.90;43.80;;;;;;5031874;28;20863;-65
2022/03/05 08:25:53;;;;;;;4.95;2.47;;;19.80;43.20;;;;;;5031994;28;20033;-69
2022/03/05 08:28:21;;;;;;;3.78;2.13;;;19.90;43.10;;;;;;5032808;28;20043;-65
2022/03/05 08:30:47;;;;;;;4.07;2.13;;;19.80;43.00;;;;;;5031278;28;20037;-67
2022/03/05 08:33:13;;;;;;;3.75;2.35;;;19.80;42.90;;;;;;5030685;28;20481;-69
2022/03/05 08:35:38;;;;;;;3.75;2.22;;;19.90;42.80;;;;;;5034744;28;20408;-70
2022/03/05 08:38:04;;;;;;;4.40;2.25;;;19.90;42.70;;;;;;5031733;28;20087;-69
2022/03/05 08:40:30;;;;;;;4.45;2.42;;;19.90;42.70;;;;;;5029826;28;20043;-67
2022/03/05 08:42:55;;;;;;;4.57;2.40;;;19.90;42.60;;;;;;5031400;28;20040;-65
2022/03/05 08:45:21;;;;;;;4.53;2.33;;;19.90;42.50;;;;;;5032505;28;20512;-69
2022/03/05 08:47:47;;;;;;;4.00;2.30;;;19.90;42.50;;;;;;5032283;28;20556;-67
2022/03/05 08:50:13;;;;;;;4.10;2.28;;;19.90;42.50;;;;;;5031024;28;20112;-66
2022/03/05 08:52:39;;;;;;;3.33;2.10;;;19.90;42.50;;;;;;5035208;28;20104;-68
2022/03/05 08:55:13;;;;;;;5.78;2.50;;;19.80;42.50;;;;;;5030721;28;20033;-69
2022/03/05 08:57:39;;;;;;;4.20;2.25;;;19.90;42.40;;;;;;5032775;28;20035;-68
2022/03/05 09:00:08;;;;;;;3.88;2.20;;;19.90;42.40;;;;;;5033604;28;20037;-68
2022/03/05 09:02:34;;;;;;;3.53;2.08;;;19.90;42.60;;;;;;5032460;28;20049;-66
2022/03/05 09:05:00;;;;;;;3.65;2.00;;;19.90;42.60;;;;;;5033088;28;20052;-69
2022/03/05 09:07:25;;;;;;;3.30;2.00;;;19.90;42.60;;;;;;5033338;28;20081;-69
2022/03/05 09:09:51;;;;;;;3.13;1.92;;;19.90;42.70;;;;;;5032190;28;20107;-67
2022/03/05 09:12:17;;;;;;;3.92;2.20;;;19.90;42.80;;;;;;5031624;28;20128;-69
2022/03/05 09:14:42;;;;;;;3.38;2.00;;;19.90;42.80;;;;;;5033862;28;20444;-66
2022/03/05 09:17:08;;;;;;;3.13;2.00;;;19.90;42.80;;;;;;5033199;28;20037;-69
2022/03/05 09:19:34;;;;;;;3.75;2.00;;;19.90;43.20;;;;;;5033192;28;20029;-67
2022/03/05 09:21:59;;;;;;;3.13;1.85;;;19.90;42.90;;;;;;5032834;28;20029;-70
2022/03/05 09:24:25;;;;;;;4.00;2.03;;;19.90;43.00;;;;;;5032201;28;20032;-66
2022/03/05 09:26:51;;;;;;;3.22;2.00;;;19.90;43.00;;;;;;5032740;28;20091;-69
2022/03/05 09:29:16;;;;;;;3.60;2.10;;;20.00;43.00;;;;;;5032736;28;20091;-66
2022/03/05 09:31:42;;;;;;;2.95;1.95;;;19.90;43.00;;;;;;5031935;28;20347;-68
2022/03/05 09:34:08;;;;;;;2.88;1.77;;;19.90;43.10;;;;;;5032067;28;20068;-66
2022/03/05 09:36:34;;;;;;;2.78;1.77;;;20.00;43.20;;;;;;5031004;28;20114;-65
2022/03/05 09:38:59;;;;;;;2.88;2.05;;;20.00;43.20;;;;;;5031032;28;20090;-66
2022/03/05 09:41:26;;;;;;;3.40;1.90;;;20.00;43.10;;;;;;5030978;28;20523;-71
2022/03/05 09:43:51;;;;;;;2.53;1.73;;;20.00;43.20;;;;;;5036525;28;20032;-69
2022/03/05 09:46:22;;;;;;;3.00;1.80;;;20.00;43.20;;;;;;5035925;28;20029;-69
2022/03/05 09:48:52;;;;;;;2.90;1.85;;;20.00;43.20;;;;;;5034524;28;20020;-65
2022/03/05 09:51:20;;;;;;;2.58;1.67;;;20.00;43.20;;;;;;5035707;28;20494;-65
2022/03/05 09:53:46;;;;;;;3.30;1.80;;;20.00;43.20;;;;;;5034603;28;20824;-69
2022/03/05 09:56:12;;;;;;;2.78;1.80;;;20.00;43.20;;;;;;5034350;28;20030;-67
2022/03/05 09:58:38;;;;;;;3.75;1.92;;;20.00;43.20;;;;;;5034908;28;20067;-68
2022/03/05 10:01:04;;;;;;;3.72;1.90;;;20.00;43.20;;;;;;5032082;28;20056;-69
2022/03/05 10:03:45;;;;;;;3.10;1.80;;;20.00;43.20;;;;;;5034857;28;20041;-69
2022/03/05 10:06:19;;;;;;;4.53;2.45;;;20.00;43.20;;;;;;5033124;28;20086;-67
2022/03/05 10:08:45;;;;;;;3.80;2.00;;;20.00;43.20;;;;;;5031430;28;20456;-70
2022/03/05 10:11:12;;;;;;;3.78;1.70;;;20.00;43.30;;;;;;5028938;28;20100;-66
2022/03/05 10:13:40;;;;;;;4.40;1.90;;;20.00;43.50;;;;;;5031610;28;20032;-69
2022/03/05 10:16:24;;;;;;;2.92;1.83;;;20.00;43.50;;;;;;5032960;28;20091;-69
2022/03/05 10:18:50;;;;;;;3.15;1.88;;;20.10;43.60;;;;;;5030441;28;20024;-70
2022/03/05 10:21:16;;;;;;;2.80;1.85;;;20.00;43.60;;;;;;5032416;28;20029;-69
2022/03/05 10:23:47;;;;;;;3.05;1.98;;;20.00;43.70;;;;;;5031481;28;20025;-70
2022/03/05 10:26:15;;;;;;;3.35;1.80;;;20.10;43.80;;;;;;5013777;28;20037;-70
2022/03/05 10:28:41;;;;;;;2.17;1.60;;;20.10;43.90;;;;;;5032430;28;20675;-68
2022/03/05 10:31:11;;;;;;;2.70;1.55;;;20.10;43.90;;;;;;5031555;28;20101;-69
2022/03/05 10:33:38;;;;;;;3.85;1.77;;;20.10;43.90;;;;;;5032307;28;20331;-66
2022/03/05 10:36:07;;;;;;;4.55;1.80;;;20.10;43.90;;;;;;5031755;28;20026;-70
2022/03/05 10:38:51;;;;;;;2.78;1.50;;;20.10;43.90;;;;;;5030632;28;20025;-70
2022/03/05 10:41:19;;;;;;;3.47;1.60;;;20.10;44.00;;;;;;5027547;28;20724;-70
2022/03/05 10:43:47;;;;;;;2.05;1.38;;;20.10;44.00;;;;;;5031676;28;20021;-70
2022/03/05 10:46:13;;;;;;;2.65;1.70;;;20.10;44.50;;;;;;5032479;28;20431;-68
2022/03/05 10:48:41;;;;;;;2.72;1.80;;;20.10;44.00;;;;;;5031870;28;20036;-70
2022/03/05 10:51:12;;;;;;;2.85;1.90;;;20.10;44.10;;;;;;5034792;28;20032;-67
2022/03/05 10:53:39;;;;;;;2.88;1.60;;;20.10;44.10;;;;;;5031584;28;20122;-70
2022/03/05 10:56:32;;;;;;;2.72;1.73;;;20.20;44.10;;;;;;5032119;28;20481;-70
2022/03/05 10:59:04;;;;;;;2.63;1.80;;;20.20;44.00;;;;;;5034271;28;20044;-69
2022/03/05 11:01:30;;;;;;;2.30;1.40;;;20.20;43.90;;;;;;5035227;28;20572;-69
2022/03/05 11:03:57;;;;;;;3.13;1.60;;;20.30;43.80;;;;;;5033415;28;20392;-67
2022/03/05 11:06:24;;;;;;;3.28;1.40;;;20.30;43.70;;;;;;5033924;28;20045;-67
2022/03/05 11:08:50;;;;;;;3.25;1.92;;;20.30;43.60;;;;;;5015404;28;20576;-70
2022/03/05 11:11:18;;;;;;;3.40;1.40;;;20.40;43.60;;;;;;5032599;28;20045;-68
2022/03/05 11:13:44;;;;;;;2.10;1.55;;;20.40;44.00;;;;;;5034109;28;20035;-68
2022/03/05 11:16:10;;;;;;;2.83;1.55;;;20.40;43.40;;;;;;5031907;28;20098;-69
2022/03/05 11:18:40;;;;;;;2.45;1.50;;;20.40;43.30;;;;;;5031930;28;20082;-70
2022/03/05 11:21:06;;;;;;;3.85;1.52;;;20.40;43.30;;;;;;5033410;28;20127;-70
2022/03/05 11:23:34;;;;;;;2.05;1.33;;;20.40;43.20;;;;;;5013851;28;20155;-67
2022/03/05 11:26:00;;;;;;;2.53;1.50;;;20.40;43.20;;;;;;5023652;28;20025;-68
2022/03/05 11:28:35;;;;;;;2.47;1.58;;;20.40;43.30;;;;;;5034786;28;20037;-68
2022/03/05 11:31:15;;;;;;;3.00;1.60;;;20.40;43.30;;;;;;5031447;28;20048;-68
2022/03/05 11:33:43;;;;;;;2.75;1.50;;;20.40;43.30;;;;;;5032354;28;20316;-71
2022/03/05 11:36:32;;;;;;;2.20;1.30;;;20.50;43.30;;;;;;5032871;28;20040;-67
2022/03/05 11:39:37;;;;;;;2.42;1.42;;;20.50;43.30;;;;;;5029899;28;20033;-67
2022/03/05 11:42:03;;;;;;;2.22;1.20;;;20.50;43.20;;;;;;5031014;28;20178;-69
2022/03/05 11:44:35;;;;;;;1.67;1.20;;;20.50;43.10;;;;;;5032313;28;20159;-68
2022/03/05 11:47:35;;;;;;;3.15;1.40;;;20.50;43.10;;;;;;5029875;28;20053;-69
2022/03/05 11:50:03;;;;;;;2.33;1.38;;;20.50;43.10;;;;;;5029473;28;20035;-70
2022/03/05 11:52:41;;;;;;;2.15;1.40;;;20.50;43.10;;;;;;5030638;28;20496;-68
2022/03/05 11:55:17;;;;;;;1.80;1.27;;;20.50;43.10;;;;;;5028979;28;20341;-69
2022/03/05 11:58:05;;;;;;;1.90;1.20;;;20.50;43.10;;;;;;5031923;28;20572;-69
2022/03/05 12:00:36;;;;;;;2.13;1.15;;;20.50;43.10;;;;;;5029273;28;20068;-66
2022/03/05 12:03:03;;;;;;;2.03;1.30;;;20.50;43.10;;;;;;5030695;28;20222;-70
2022/03/05 12:05:38;;;;;;;2.42;1.40;;;20.50;43.10;;;;;;5030724;28;20033;-67
2022/03/05 12:08:09;;;;;;;1.50;1.17;;;20.50;43.10;;;;;;5029344;28;20022;-68
2022/03/05 12:10:38;;;;;;;1.67;1.15;;;20.50;43.10;;;;;;5028546;28;20515;-67
2022/03/05 12:13:07;;;;;;;1.65;1.23;;;20.50;43.00;;;;;;5029788;28;20044;-68
2022/03/05 12:15:34;;;;;;;2.30;1.45;;;20.60;43.00;;;;;;5031566;28;20029;-70
2022/03/05 12:18:02;;;;;;;1.88;1.13;;;20.60;42.90;;;;;;5030233;28;20509;-66
2022/03/05 12:20:33;;;;;;;1.55;1.10;;;20.60;42.90;;;;;;5029922;28;20108;-70
2022/03/05 12:23:05;;;;;;;2.22;1.30;;;20.70;42.90;;;;;;5017932;28;20029;-69
2022/03/05 12:25:36;;;;;;;2.25;1.40;;;20.60;42.80;;;;;;5029537;28;20059;-69
2022/03/05 12:28:04;;;;;;;1.48;1.10;;;20.60;42.80;;;;;;5033622;28;20135;-67
2022/03/05 12:30:33;;;;;;;2.33;1.20;;;20.60;42.80;;;;;;5032459;28;20041;-67
2022/03/05 12:33:06;;;;;;;1.95;1.30;;;20.60;42.80;;;;;;5016647;28;20039;-67
2022/03/05 12:35:34;;;;;;;2.15;1.30;;;20.60;42.80;;;;;;5034211;28;20025;-68
2022/03/05 12:38:01;;;;;;;1.75;1.25;;;20.60;42.80;;;;;;5011098;28;20434;-69
2022/03/05 12:40:27;;;;;;;1.80;1.13;;;20.60;42.80;;;;;;5021662;28;20103;-68
2022/03/05 12:42:55;;;;;;;1.95;1.27;;;20.60;42.80;;;;;;5033261;28;20496;-69
2022/03/05 12:45:26;;;;;;;2.80;1.20;;;20.60;42.80;;;;;;5033900;28;20033;-70
2022/03/05 12:47:53;;;;;;;1.88;1.15;;;20.60;42.80;;;;;;5032429;28;20484;-68
2022/03/05 12:50:27;;;;;;;2.80;1.40;;;20.60;42.80;;;;;;5031794;28;20030;-69